sensor_id;sensor_type;location;lat;lon;timestamp;P1;durP1;ratioP1;P2;durP2;ratioP2
49340;SDS011;35209;51.050;13.678;2022-07-01T00:00:59;12.80;;;12.00;;
49340;SDS011;35209;51.050;13.678;2022-07-01T00:06:01;13.85;;;12.68;;
49340;SDS011;35209;51.050;13.678;2022-07-01T00:11:03;12.48;;;11.57;;
49340;SDS011;35209;51.050;13.678;2022-07-01T00:16:04;11.82;;;11.10;;
49340;SDS011;35209;51.050;13.678;2022-07-01T00:21:06;13.70;;;12.60;;
49340;SDS011;35209;51.050;13.678;2022-07-01T00:26:14;13.43;;;12.50;;
49340;SDS011;35209;51.050;13.678;2022-07-01T00:31:16;14.18;;;13.27;;
49340;SDS011;35209;51.050;13.678;2022-07-01T00:36:18;13.85;;;12.75;;
49340;SDS011;35209;51.050;13.678;2022-07-01T00:41:20;14.82;;;13.82;;
49340;SDS011;35209;51.050;13.678;2022-07-01T00:46:22;15.65;;;14.40;;
49340;SDS011;35209;51.050;13.678;2022-07-01T00:51:26;14.38;;;13.43;;
49340;SDS011;35209;51.050;13.678;2022-07-01T00:56:30;13.48;;;12.57;;
49340;SDS011;35209;51.050;13.678;2022-07-01T01:01:33;15.75;;;14.65;;
49340;SDS011;35209;51.050;13.678;2022-07-01T01:06:35;13.98;;;12.95;;
49340;SDS011;35209;51.050;13.678;2022-07-01T01:11:37;13.43;;;12.63;;
49340;SDS011;35209;51.050;13.678;2022-07-01T01:16:39;12.32;;;11.55;;
49340;SDS011;35209;51.050;13.678;2022-07-01T01:21:41;12.85;;;12.05;;
49340;SDS011;35209;51.050;13.678;2022-07-01T01:26:43;14.50;;;13.55;;
49340;SDS011;35209;51.050;13.678;2022-07-01T01:31:45;15.23;;;14.10;;
49340;SDS011;35209;51.050;13.678;2022-07-01T01:36:48;14.57;;;13.60;;
49340;SDS011;35209;51.050;13.678;2022-07-01T01:41:49;15.50;;;14.23;;
49340;SDS011;35209;51.050;13.678;2022-07-01T01:46:51;14.80;;;13.80;;
49340;SDS011;35209;51.050;13.678;2022-07-01T01:51:53;15.20;;;14.10;;
49340;SDS011;35209;51.050;13.678;2022-07-01T01:56:56;17.33;;;15.90;;
49340;SDS011;35209;51.050;13.678;2022-07-01T02:01:57;15.32;;;14.27;;
49340;SDS011;35209;51.050;13.678;2022-07-01T02:06:59;15.10;;;13.98;;
49340;SDS011;35209;51.050;13.678;2022-07-01T02:12:01;14.48;;;13.48;;
49340;SDS011;35209;51.050;13.678;2022-07-01T02:17:03;14.20;;;13.32;;
49340;SDS011;35209;51.050;13.678;2022-07-01T02:22:05;14.48;;;13.57;;
49340;SDS011;35209;51.050;13.678;2022-07-01T02:27:06;16.27;;;14.85;;
49340;SDS011;35209;51.050;13.678;2022-07-01T02:32:08;14.48;;;13.57;;
49340;SDS011;35209;51.050;13.678;2022-07-01T02:37:10;13.85;;;12.95;;
49340;SDS011;35209;51.050;13.678;2022-07-01T02:42:12;14.18;;;13.27;;
49340;SDS011;35209;51.050;13.678;2022-07-01T02:47:31;14.60;;;13.60;;
49340;SDS011;35209;51.050;13.678;2022-07-01T02:52:35;14.63;;;13.52;;
49340;SDS011;35209;51.050;13.678;2022-07-01T02:57:38;13.57;;;12.68;;
49340;SDS011;35209;51.050;13.678;2022-07-01T03:02:41;15.60;;;14.30;;
49340;SDS011;35209;51.050;13.678;2022-07-01T03:07:43;14.90;;;14.00;;
49340;SDS011;35209;51.050;13.678;2022-07-01T03:12:45;15.15;;;13.90;;
49340;SDS011;35209;51.050;13.678;2022-07-01T03:17:47;15.02;;;14.00;;
49340;SDS011;35209;51.050;13.678;2022-07-01T03:22:51;15.63;;;14.52;;
49340;SDS011;35209;51.050;13.678;2022-07-01T03:27:53;16.15;;;15.05;;
49340;SDS011;35209;51.050;13.678;2022-07-01T03:32:55;16.23;;;15.02;;
49340;SDS011;35209;51.050;13.678;2022-07-01T03:37:56;14.75;;;13.75;;
49340;SDS011;35209;51.050;13.678;2022-07-01T03:42:59;14.38;;;13.43;;
49340;SDS011;35209;51.050;13.678;2022-07-01T03:48:02;13.52;;;12.63;;
49340;SDS011;35209;51.050;13.678;2022-07-01T03:53:03;13.60;;;12.65;;
49340;SDS011;35209;51.050;13.678;2022-07-01T03:58:24;14.35;;;13.40;;
49340;SDS011;35209;51.050;13.678;2022-07-01T04:03:25;13.35;;;12.45;;
49340;SDS011;35209;51.050;13.678;2022-07-01T04:08:27;12.35;;;11.55;;
49340;SDS011;35209;51.050;13.678;2022-07-01T04:13:29;12.32;;;11.52;;
49340;SDS011;35209;51.050;13.678;2022-07-01T04:18:32;12.30;;;11.40;;
49340;SDS011;35209;51.050;13.678;2022-07-01T04:23:34;10.27;;;9.52;;
49340;SDS011;35209;51.050;13.678;2022-07-01T04:28:36;12.30;;;11.25;;
49340;SDS011;35209;51.050;13.678;2022-07-01T04:33:38;12.05;;;11.18;;
49340;SDS011;35209;51.050;13.678;2022-07-01T04:38:39;11.90;;;10.98;;
49340;SDS011;35209;51.050;13.678;2022-07-01T04:43:41;12.70;;;11.70;;
49340;SDS011;35209;51.050;13.678;2022-07-01T04:48:43;12.48;;;11.45;;
49340;SDS011;35209;51.050;13.678;2022-07-01T04:53:45;12.98;;;11.68;;
49340;SDS011;35209;51.050;13.678;2022-07-01T04:58:47;12.15;;;11.02;;
49340;SDS011;35209;51.050;13.678;2022-07-01T05:03:49;11.75;;;10.80;;
49340;SDS011;35209;51.050;13.678;2022-07-01T05:08:52;10.13;;;8.77;;
49340;SDS011;35209;51.050;13.678;2022-07-01T05:13:54;6.75;;;6.15;;
49340;SDS011;35209;51.050;13.678;2022-07-01T05:18:55;6.60;;;5.80;;
49340;SDS011;35209;51.050;13.678;2022-07-01T05:24:16;6.50;;;5.90;;
49340;SDS011;35209;51.050;13.678;2022-07-01T05:29:18;9.95;;;6.65;;
49340;SDS011;35209;51.050;13.678;2022-07-01T05:34:20;9.27;;;6.15;;
49340;SDS011;35209;51.050;13.678;2022-07-01T05:39:22;7.28;;;6.53;;
49340;SDS011;35209;51.050;13.678;2022-07-01T05:44:24;7.10;;;6.30;;
49340;SDS011;35209;51.050;13.678;2022-07-01T05:49:25;9.38;;;6.28;;
49340;SDS011;35209;51.050;13.678;2022-07-01T05:54:27;7.72;;;6.55;;
49340;SDS011;35209;51.050;13.678;2022-07-01T05:59:29;8.77;;;6.50;;
49340;SDS011;35209;51.050;13.678;2022-07-01T06:04:31;8.05;;;7.20;;
49340;SDS011;35209;51.050;13.678;2022-07-01T06:09:32;11.68;;;10.48;;
49340;SDS011;35209;51.050;13.678;2022-07-01T06:14:34;10.75;;;9.93;;
49340;SDS011;35209;51.050;13.678;2022-07-01T06:19:36;10.10;;;9.30;;
49340;SDS011;35209;51.050;13.678;2022-07-01T06:24:39;12.05;;;9.45;;
49340;SDS011;35209;51.050;13.678;2022-07-01T06:29:42;8.13;;;7.45;;
49340;SDS011;35209;51.050;13.678;2022-07-01T06:34:43;8.98;;;8.18;;
49340;SDS011;35209;51.050;13.678;2022-07-01T06:39:45;9.63;;;8.65;;
49340;SDS011;35209;51.050;13.678;2022-07-01T06:44:47;10.32;;;9.43;;
49340;SDS011;35209;51.050;13.678;2022-07-01T06:49:48;10.02;;;9.00;;
49340;SDS011;35209;51.050;13.678;2022-07-01T06:54:55;10.02;;;9.07;;
49340;SDS011;35209;51.050;13.678;2022-07-01T06:59:56;13.98;;;12.82;;
49340;SDS011;35209;51.050;13.678;2022-07-01T07:05:00;13.27;;;12.20;;
49340;SDS011;35209;51.050;13.678;2022-07-01T07:10:03;12.52;;;11.77;;
49340;SDS011;35209;51.050;13.678;2022-07-01T07:15:06;13.68;;;12.65;;
49340;SDS011;35209;51.050;13.678;2022-07-01T07:20:09;15.52;;;14.63;;
49340;SDS011;35209;51.050;13.678;2022-07-01T07:25:11;15.35;;;14.05;;
49340;SDS011;35209;51.050;13.678;2022-07-01T07:30:25;12.18;;;11.00;;
49340;SDS011;35209;51.050;13.678;2022-07-01T07:35:27;11.98;;;10.93;;
49340;SDS011;35209;51.050;13.678;2022-07-01T07:40:28;13.32;;;12.32;;
49340;SDS011;35209;51.050;13.678;2022-07-01T07:45:30;13.65;;;12.55;;
49340;SDS011;35209;51.050;13.678;2022-07-01T07:50:32;16.95;;;15.70;;
49340;SDS011;35209;51.050;13.678;2022-07-01T07:55:35;15.07;;;13.98;;
49340;SDS011;35209;51.050;13.678;2022-07-01T08:00:37;17.27;;;15.77;;
49340;SDS011;35209;51.050;13.678;2022-07-01T08:05:40;14.55;;;13.52;;
49340;SDS011;35209;51.050;13.678;2022-07-01T08:10:42;13.52;;;12.52;;
49340;SDS011;35209;51.050;13.678;2022-07-01T08:15:44;12.60;;;11.68;;
49340;SDS011;35209;51.050;13.678;2022-07-01T08:20:46;13.68;;;12.55;;
49340;SDS011;35209;51.050;13.678;2022-07-01T08:25:48;14.07;;;12.52;;
49340;SDS011;35209;51.050;13.678;2022-07-01T08:30:51;16.55;;;14.65;;
49340;SDS011;35209;51.050;13.678;2022-07-01T08:35:53;16.08;;;14.80;;
49340;SDS011;35209;51.050;13.678;2022-07-01T08:40:55;15.25;;;14.25;;
49340;SDS011;35209;51.050;13.678;2022-07-01T08:45:57;13.77;;;12.77;;
49340;SDS011;35209;51.050;13.678;2022-07-01T08:51:00;14.18;;;13.07;;
49340;SDS011;35209;51.050;13.678;2022-07-01T08:56:07;13.52;;;11.95;;
49340;SDS011;35209;51.050;13.678;2022-07-01T09:01:28;14.50;;;13.50;;
49340;SDS011;35209;51.050;13.678;2022-07-01T09:06:29;16.63;;;15.30;;
49340;SDS011;35209;51.050;13.678;2022-07-01T09:11:31;16.77;;;15.48;;
49340;SDS011;35209;51.050;13.678;2022-07-01T09:16:40;15.73;;;14.43;;
49340;SDS011;35209;51.050;13.678;2022-07-01T09:21:51;14.23;;;13.13;;
49340;SDS011;35209;51.050;13.678;2022-07-01T09:26:58;14.30;;;13.00;;
49340;SDS011;35209;51.050;13.678;2022-07-01T09:32:03;16.92;;;15.25;;
49340;SDS011;35209;51.050;13.678;2022-07-01T09:37:06;15.75;;;14.25;;
49340;SDS011;35209;51.050;13.678;2022-07-01T09:42:09;14.68;;;13.27;;
49340;SDS011;35209;51.050;13.678;2022-07-01T09:47:11;13.65;;;12.30;;
49340;SDS011;35209;51.050;13.678;2022-07-01T09:52:12;12.57;;;11.48;;
49340;SDS011;35209;51.050;13.678;2022-07-01T09:57:15;12.18;;;11.18;;
49340;SDS011;35209;51.050;13.678;2022-07-01T10:02:21;11.63;;;10.63;;
49340;SDS011;35209;51.050;13.678;2022-07-01T10:07:29;12.27;;;11.07;;
49340;SDS011;35209;51.050;13.678;2022-07-01T10:12:39;10.88;;;9.88;;
49340;SDS011;35209;51.050;13.678;2022-07-01T10:17:44;9.70;;;8.98;;
49340;SDS011;35209;51.050;13.678;2022-07-01T10:22:47;8.93;;;8.30;;
49340;SDS011;35209;51.050;13.678;2022-07-01T10:59:48;8.63;;;8.00;;
49340;SDS011;35209;51.050;13.678;2022-07-01T11:10:06;7.95;;;7.45;;
49340;SDS011;35209;51.050;13.678;2022-07-01T11:15:09;6.75;;;6.18;;
49340;SDS011;35209;51.050;13.678;2022-07-01T11:20:12;5.18;;;4.68;;
49340;SDS011;35209;51.050;13.678;2022-07-01T11:25:18;5.68;;;3.75;;
49340;SDS011;35209;51.050;13.678;2022-07-01T11:30:21;6.10;;;5.70;;
49340;SDS011;35209;51.050;13.678;2022-07-01T11:35:26;7.93;;;7.47;;
49340;SDS011;35209;51.050;13.678;2022-07-01T11:40:50;7.63;;;7.20;;
49340;SDS011;35209;51.050;13.678;2022-07-01T11:45:53;4.60;;;4.35;;
49340;SDS011;35209;51.050;13.678;2022-07-01T11:50:55;3.30;;;3.10;;
49340;SDS011;35209;51.050;13.678;2022-07-01T11:55:57;2.33;;;2.10;;
49340;SDS011;35209;51.050;13.678;2022-07-01T12:00:59;2.85;;;2.65;;
49340;SDS011;35209;51.050;13.678;2022-07-01T12:06:01;3.03;;;2.83;;
49340;SDS011;35209;51.050;13.678;2022-07-01T12:11:04;6.10;;;3.72;;
49340;SDS011;35209;51.050;13.678;2022-07-01T12:16:09;3.65;;;3.45;;
49340;SDS011;35209;51.050;13.678;2022-07-01T12:21:12;4.60;;;3.53;;
49340;SDS011;35209;51.050;13.678;2022-07-01T12:26:13;2.58;;;1.90;;
49340;SDS011;35209;51.050;13.678;2022-07-01T12:31:18;1.90;;;1.70;;
49340;SDS011;35209;51.050;13.678;2022-07-01T12:36:20;5.70;;;2.67;;
49340;SDS011;35209;51.050;13.678;2022-07-01T12:41:28;2.22;;;1.85;;
49340;SDS011;35209;51.050;13.678;2022-07-01T12:46:39;2.35;;;1.98;;
49340;SDS011;35209;51.050;13.678;2022-07-01T12:51:41;2.25;;;2.15;;
49340;SDS011;35209;51.050;13.678;2022-07-01T12:56:43;2.22;;;1.77;;
49340;SDS011;35209;51.050;13.678;2022-07-01T13:01:45;2.13;;;1.80;;
49340;SDS011;35209;51.050;13.678;2022-07-01T13:06:47;1.20;;;1.10;;
49340;SDS011;35209;51.050;13.678;2022-07-01T13:11:48;1.25;;;1.17;;
49340;SDS011;35209;51.050;13.678;2022-07-01T13:16:50;1.88;;;1.77;;
49340;SDS011;35209;51.050;13.678;2022-07-01T13:21:52;1.50;;;1.40;;
49340;SDS011;35209;51.050;13.678;2022-07-01T13:26:54;1.70;;;1.60;;
49340;SDS011;35209;51.050;13.678;2022-07-01T13:31:55;2.80;;;2.60;;
49340;SDS011;35209;51.050;13.678;2022-07-01T13:36:57;3.70;;;3.50;;
49340;SDS011;35209;51.050;13.678;2022-07-01T13:41:59;5.45;;;5.15;;
49340;SDS011;35209;51.050;13.678;2022-07-01T13:47:00;6.57;;;6.28;;
49340;SDS011;35209;51.050;13.678;2022-07-01T13:52:03;7.38;;;6.97;;
49340;SDS011;35209;51.050;13.678;2022-07-01T13:57:05;8.93;;;8.50;;
49340;SDS011;35209;51.050;13.678;2022-07-01T14:02:10;9.77;;;9.27;;
49340;SDS011;35209;51.050;13.678;2022-07-01T14:07:15;9.93;;;9.40;;
49340;SDS011;35209;51.050;13.678;2022-07-01T14:12:20;9.57;;;9.13;;
49340;SDS011;35209;51.050;13.678;2022-07-01T14:17:28;9.88;;;9.38;;
49340;SDS011;35209;51.050;13.678;2022-07-01T14:22:31;6.65;;;6.25;;
49340;SDS011;35209;51.050;13.678;2022-07-01T14:27:33;5.13;;;4.82;;
49340;SDS011;35209;51.050;13.678;2022-07-01T14:32:34;4.18;;;3.97;;
49340;SDS011;35209;51.050;13.678;2022-07-01T14:37:37;3.25;;;3.05;;
49340;SDS011;35209;51.050;13.678;2022-07-01T14:42:39;1.80;;;1.70;;
49340;SDS011;35209;51.050;13.678;2022-07-01T14:47:41;1.50;;;1.30;;
49340;SDS011;35209;51.050;13.678;2022-07-01T14:52:43;1.40;;;1.30;;
49340;SDS011;35209;51.050;13.678;2022-07-01T14:57:45;1.60;;;1.50;;
49340;SDS011;35209;51.050;13.678;2022-07-01T15:02:46;1.80;;;1.30;;
49340;SDS011;35209;51.050;13.678;2022-07-01T15:07:49;1.50;;;0.90;;
49340;SDS011;35209;51.050;13.678;2022-07-01T15:12:51;4.75;;;1.13;;
49340;SDS011;35209;51.050;13.678;2022-07-01T15:17:53;2.50;;;1.30;;
49340;SDS011;35209;51.050;13.678;2022-07-01T15:22:55;1.10;;;1.00;;
49340;SDS011;35209;51.050;13.678;2022-07-01T15:27:57;1.33;;;1.00;;
49340;SDS011;35209;51.050;13.678;2022-07-01T15:32:59;1.30;;;1.00;;
49340;SDS011;35209;51.050;13.678;2022-07-01T15:38:01;1.85;;;1.08;;
49340;SDS011;35209;51.050;13.678;2022-07-01T15:43:03;2.05;;;1.10;;
49340;SDS011;35209;51.050;13.678;2022-07-01T15:48:08;2.58;;;1.20;;
49340;SDS011;35209;51.050;13.678;2022-07-01T15:53:10;2.38;;;1.40;;
49340;SDS011;35209;51.050;13.678;2022-07-01T15:58:13;2.05;;;1.70;;
49340;SDS011;35209;51.050;13.678;2022-07-01T16:03:16;3.97;;;2.15;;
49340;SDS011;35209;51.050;13.678;2022-07-01T16:08:19;2.17;;;1.92;;
49340;SDS011;35209;51.050;13.678;2022-07-01T16:13:25;2.17;;;2.08;;
49340;SDS011;35209;51.050;13.678;2022-07-01T16:18:29;2.60;;;2.20;;
49340;SDS011;35209;51.050;13.678;2022-07-01T16:23:34;3.42;;;3.22;;
49340;SDS011;35209;51.050;13.678;2022-07-01T16:28:36;3.65;;;2.80;;
49340;SDS011;35209;51.050;13.678;2022-07-01T16:33:40;3.17;;;2.88;;
49340;SDS011;35209;51.050;13.678;2022-07-01T16:38:56;3.72;;;3.42;;
49340;SDS011;35209;51.050;13.678;2022-07-01T16:44:37;3.33;;;3.03;;
49340;SDS011;35209;51.050;13.678;2022-07-01T16:49:45;4.97;;;3.70;;
49340;SDS011;35209;51.050;13.678;2022-07-01T16:54:58;4.75;;;4.40;;
49340;SDS011;35209;51.050;13.678;2022-07-01T17:00:03;5.15;;;4.78;;
49340;SDS011;35209;51.050;13.678;2022-07-01T17:05:07;5.72;;;5.28;;
49340;SDS011;35209;51.050;13.678;2022-07-01T17:10:09;5.60;;;5.20;;
49340;SDS011;35209;51.050;13.678;2022-07-01T17:15:14;6.28;;;5.68;;
49340;SDS011;35209;51.050;13.678;2022-07-01T17:20:17;5.57;;;5.28;;
49340;SDS011;35209;51.050;13.678;2022-07-01T17:30:28;6.15;;;5.75;;
49340;SDS011;35209;51.050;13.678;2022-07-01T17:35:39;5.28;;;4.97;;
49340;SDS011;35209;51.050;13.678;2022-07-01T17:40:43;6.47;;;6.03;;
49340;SDS011;35209;51.050;13.678;2022-07-01T17:45:48;6.88;;;6.25;;
49340;SDS011;35209;51.050;13.678;2022-07-01T17:50:51;6.80;;;5.60;;
49340;SDS011;35209;51.050;13.678;2022-07-01T17:55:55;7.57;;;6.97;;
49340;SDS011;35209;51.050;13.678;2022-07-01T18:01:04;5.57;;;5.18;;
49340;SDS011;35209;51.050;13.678;2022-07-01T18:06:06;5.25;;;4.85;;
49340;SDS011;35209;51.050;13.678;2022-07-01T18:16:56;9.02;;;6.60;;
49340;SDS011;35209;51.050;13.678;2022-07-01T18:22:00;7.53;;;6.85;;
49340;SDS011;35209;51.050;13.678;2022-07-01T18:27:07;7.25;;;6.68;;
49340;SDS011;35209;51.050;13.678;2022-07-01T18:32:12;7.68;;;7.07;;
49340;SDS011;35209;51.050;13.678;2022-07-01T18:37:16;7.10;;;6.50;;
49340;SDS011;35209;51.050;13.678;2022-07-01T18:42:20;8.88;;;8.18;;
49340;SDS011;35209;51.050;13.678;2022-07-01T18:47:21;9.70;;;8.93;;
49340;SDS011;35209;51.050;13.678;2022-07-01T18:52:23;10.95;;;10.20;;
49340;SDS011;35209;51.050;13.678;2022-07-01T18:57:25;10.52;;;9.57;;
49340;SDS011;35209;51.050;13.678;2022-07-01T19:02:27;9.95;;;9.23;;
49340;SDS011;35209;51.050;13.678;2022-07-01T19:07:29;11.50;;;10.50;;
49340;SDS011;35209;51.050;13.678;2022-07-01T19:12:33;10.18;;;9.32;;
49340;SDS011;35209;51.050;13.678;2022-07-01T19:17:36;9.70;;;9.00;;
49340;SDS011;35209;51.050;13.678;2022-07-01T19:22:38;9.52;;;8.77;;
49340;SDS011;35209;51.050;13.678;2022-07-01T19:27:40;10.27;;;9.45;;
49340;SDS011;35209;51.050;13.678;2022-07-01T19:32:42;9.40;;;8.80;;
49340;SDS011;35209;51.050;13.678;2022-07-01T19:37:44;8.25;;;7.65;;
49340;SDS011;35209;51.050;13.678;2022-07-01T19:42:52;8.88;;;8.15;;
49340;SDS011;35209;51.050;13.678;2022-07-01T19:47:54;8.48;;;7.78;;
49340;SDS011;35209;51.050;13.678;2022-07-01T19:52:55;8.52;;;7.82;;
49340;SDS011;35209;51.050;13.678;2022-07-01T19:57:57;6.75;;;6.25;;
49340;SDS011;35209;51.050;13.678;2022-07-01T20:02:59;8.23;;;7.50;;
49340;SDS011;35209;51.050;13.678;2022-07-01T20:08:00;6.90;;;6.50;;
49340;SDS011;35209;51.050;13.678;2022-07-01T20:13:02;7.13;;;6.63;;
49340;SDS011;35209;51.050;13.678;2022-07-01T20:18:04;7.47;;;6.88;;
49340;SDS011;35209;51.050;13.678;2022-07-01T20:23:05;7.38;;;6.78;;
49340;SDS011;35209;51.050;13.678;2022-07-01T20:28:07;6.47;;;5.93;;
49340;SDS011;35209;51.050;13.678;2022-07-01T20:33:09;6.78;;;6.38;;
49340;SDS011;35209;51.050;13.678;2022-07-01T20:38:11;7.63;;;7.05;;
49340;SDS011;35209;51.050;13.678;2022-07-01T20:43:12;7.20;;;6.60;;
49340;SDS011;35209;51.050;13.678;2022-07-01T20:48:14;7.35;;;6.68;;
49340;SDS011;35209;51.050;13.678;2022-07-01T20:53:16;7.38;;;6.63;;
49340;SDS011;35209;51.050;13.678;2022-07-01T20:58:17;7.72;;;6.88;;
49340;SDS011;35209;51.050;13.678;2022-07-01T21:03:19;7.45;;;6.75;;
49340;SDS011;35209;51.050;13.678;2022-07-01T21:08:22;6.95;;;6.15;;
49340;SDS011;35209;51.050;13.678;2022-07-01T21:13:23;7.55;;;6.20;;
49340;SDS011;35209;51.050;13.678;2022-07-01T21:18:25;6.90;;;5.55;;
49340;SDS011;35209;51.050;13.678;2022-07-01T21:23:27;7.35;;;6.75;;
49340;SDS011;35209;51.050;13.678;2022-07-01T21:28:28;8.43;;;7.65;;
49340;SDS011;35209;51.050;13.678;2022-07-01T21:33:30;7.25;;;6.75;;
49340;SDS011;35209;51.050;13.678;2022-07-01T21:38:33;8.45;;;7.85;;
49340;SDS011;35209;51.050;13.678;2022-07-01T21:43:35;6.85;;;6.35;;
49340;SDS011;35209;51.050;13.678;2022-07-01T21:48:38;7.22;;;6.53;;
49340;SDS011;35209;51.050;13.678;2022-07-01T21:53:43;6.93;;;6.53;;
49340;SDS011;35209;51.050;13.678;2022-07-01T21:58:47;6.85;;;6.35;;
49340;SDS011;35209;51.050;13.678;2022-07-01T22:03:50;6.72;;;6.03;;
49340;SDS011;35209;51.050;13.678;2022-07-01T22:08:53;7.05;;;6.63;;
49340;SDS011;35209;51.050;13.678;2022-07-01T22:14:00;5.70;;;5.30;;
49340;SDS011;35209;51.050;13.678;2022-07-01T22:19:04;5.88;;;5.47;;
49340;SDS011;35209;51.050;13.678;2022-07-01T22:24:06;6.15;;;5.63;;
49340;SDS011;35209;51.050;13.678;2022-07-01T22:29:11;5.72;;;5.30;;
49340;SDS011;35209;51.050;13.678;2022-07-01T22:34:14;6.93;;;5.78;;
49340;SDS011;35209;51.050;13.678;2022-07-01T22:39:17;7.75;;;5.40;;
49340;SDS011;35209;51.050;13.678;2022-07-01T22:44:19;5.30;;;5.00;;
49340;SDS011;35209;51.050;13.678;2022-07-01T22:49:32;5.35;;;5.05;;
49340;SDS011;35209;51.050;13.678;2022-07-01T23:00:08;6.18;;;5.78;;
49340;SDS011;35209;51.050;13.678;2022-07-01T23:05:11;6.68;;;5.90;;
49340;SDS011;35209;51.050;13.678;2022-07-01T23:10:30;7.00;;;6.47;;
49340;SDS011;35209;51.050;13.678;2022-07-01T23:15:41;8.18;;;5.50;;
49340;SDS011;35209;51.050;13.678;2022-07-01T23:21:02;5.78;;;5.22;;
49340;SDS011;35209;51.050;13.678;2022-07-01T23:26:04;5.38;;;4.97;;
49340;SDS011;35209;51.050;13.678;2022-07-01T23:31:07;5.53;;;5.00;;
49340;SDS011;35209;51.050;13.678;2022-07-01T23:36:10;5.60;;;5.20;;
49340;SDS011;35209;51.050;13.678;2022-07-01T23:41:12;5.47;;;5.18;;
49340;SDS011;35209;51.050;13.678;2022-07-01T23:46:17;5.07;;;4.57;;
49340;SDS011;35209;51.050;13.678;2022-07-01T23:51:25;4.88;;;4.55;;
49340;SDS011;35209;51.050;13.678;2022-07-01T23:56:27;4.32;;;4.03;;
